createdAt,value
2023-02-17T00:00:55.914Z,49.48
2023-02-17T00:03:23.558Z,49.64
2023-02-17T00:05:51.489Z,49.67
2023-02-17T00:08:19.206Z,49.42
2023-02-17T00:10:46.785Z,49.33
2023-02-17T00:13:14.350Z,49.71
2023-02-17T00:15:42.041Z,49.41
2023-02-17T00:18:10.966Z,49.69
2023-02-17T00:20:38.490Z,48.91
2023-02-17T00:23:05.982Z,49.04
2023-02-17T00:25:33.501Z,49.03
2023-02-17T00:28:01.010Z,49.48
2023-02-17T00:30:28.592Z,49.24
2023-02-17T00:32:56.172Z,49.32
2023-02-17T00:35:25.100Z,49.42
2023-02-17T00:37:52.665Z,48.88
2023-02-17T00:40:20.513Z,49.47
2023-02-17T00:42:48.853Z,49.31
2023-02-17T00:45:16.508Z,48.94
2023-02-17T00:47:44.053Z,48.92
2023-02-17T00:50:11.744Z,49.09
2023-02-17T00:52:41.112Z,49.27
2023-02-17T00:55:11.446Z,49.27
2023-02-17T00:57:39.017Z,48.85
2023-02-17T01:00:09.218Z,48.89
2023-02-17T01:02:36.748Z,48.80
2023-02-17T01:05:04.383Z,49.45
2023-02-17T01:07:31.906Z,49.08
2023-02-17T01:10:00.761Z,49.62
2023-02-17T01:12:28.275Z,49.53
2023-02-17T01:14:55.827Z,49.86
2023-02-17T01:17:23.413Z,49.31
2023-02-17T01:19:51.125Z,49.32
2023-02-17T01:22:18.705Z,49.36
2023-02-17T01:24:46.258Z,49.30
2023-02-17T01:27:15.285Z,49.21
2023-02-17T01:29:44.593Z,49.45
2023-02-17T01:32:12.336Z,49.55
2023-02-17T01:34:40.051Z,49.75
2023-02-17T01:37:07.848Z,49.71
2023-02-17T01:39:35.371Z,50.24
2023-02-17T01:42:02.999Z,49.74
2023-02-17T01:44:34.170Z,50.28
2023-02-17T01:47:01.712Z,50.11
2023-02-17T01:49:33.800Z,49.89
2023-02-17T01:52:07.699Z,50.22
2023-02-17T01:54:39.089Z,50.00
2023-02-17T01:57:06.981Z,50.17
2023-02-17T01:59:35.891Z,49.89
2023-02-17T02:02:06.619Z,50.10
2023-02-17T02:04:37.289Z,50.00
2023-02-17T02:07:11.207Z,50.03
2023-02-17T02:09:43.044Z,50.35
2023-02-17T02:12:21.709Z,50.33
2023-02-17T02:14:51.782Z,50.38
2023-02-17T02:17:28.732Z,50.48
2023-02-17T02:20:17.109Z,50.18
2023-02-17T02:23:21.304Z,50.27
2023-02-17T02:26:15.848Z,50.16
2023-02-17T02:29:00.410Z,50.22
2023-02-17T02:31:44.908Z,50.06
2023-02-17T02:34:18.250Z,50.22
2023-02-17T02:36:49.484Z,50.13
2023-02-17T02:39:20.037Z,49.93
2023-02-17T02:41:51.524Z,49.99
2023-02-17T02:44:22.019Z,49.86
2023-02-17T02:46:58.507Z,49.98
2023-02-17T02:49:28.604Z,50.47
2023-02-17T02:52:04.674Z,49.66
2023-02-17T02:54:42.868Z,50.08
2023-02-17T02:57:25.886Z,49.84
2023-02-17T02:59:59.108Z,49.73
2023-02-17T03:02:31.889Z,49.71
2023-02-17T03:05:06.335Z,49.70
2023-02-17T03:07:38.571Z,49.79
2023-02-17T03:10:07.152Z,49.77
2023-02-17T03:12:37.206Z,49.76
2023-02-17T03:15:13.398Z,49.73
2023-02-17T03:17:40.964Z,50.04
2023-02-17T03:20:11.713Z,49.67
2023-02-17T03:22:42.422Z,49.77
2023-02-17T03:25:10.563Z,49.97
2023-02-17T03:27:38.084Z,50.11
2023-02-17T03:30:07.584Z,50.07
2023-02-17T03:32:35.279Z,50.14
2023-02-17T03:35:02.835Z,50.27
2023-02-17T03:37:32.979Z,50.13
2023-02-17T03:40:00.555Z,50.28
2023-02-17T03:42:28.078Z,50.17
2023-02-17T03:44:55.589Z,50.13
2023-02-17T03:47:23.084Z,50.16
2023-02-17T03:49:51.614Z,50.12
2023-02-17T03:52:19.132Z,50.10
2023-02-17T03:54:48.057Z,50.32
2023-02-17T03:57:15.574Z,50.25
2023-02-17T03:59:43.047Z,50.19
2023-02-17T04:02:10.556Z,50.20
2023-02-17T04:04:39.102Z,50.46
2023-02-17T04:07:06.975Z,50.37
2023-02-17T04:09:34.598Z,50.56
2023-02-17T04:12:03.440Z,50.66
2023-02-17T04:14:31.036Z,50.59
2023-02-17T04:16:58.536Z,50.57
2023-02-17T04:19:26.053Z,50.92
2023-02-17T04:21:53.607Z,50.75
2023-02-17T04:24:21.105Z,50.85
2023-02-17T04:26:48.623Z,51.03
2023-02-17T04:29:17.446Z,51.26
2023-02-17T04:31:45.086Z,51.16
2023-02-17T04:34:12.700Z,51.23
2023-02-17T04:36:40.244Z,51.28
2023-02-17T04:39:07.877Z,51.37
2023-02-17T04:41:35.420Z,51.47
2023-02-17T04:44:02.897Z,51.60
2023-02-17T04:46:31.818Z,51.85
2023-02-17T04:48:59.301Z,51.87
2023-02-17T04:51:26.880Z,51.99
2023-02-17T04:53:54.400Z,52.25
2023-02-17T04:56:21.953Z,51.83
2023-02-17T04:58:49.466Z,52.45
2023-02-17T05:01:17.165Z,52.60
2023-02-17T05:03:46.042Z,52.59
2023-02-17T05:06:13.544Z,52.70
2023-02-17T05:08:41.021Z,52.84
2023-02-17T05:11:08.573Z,52.89
2023-02-17T05:13:36.197Z,53.07
2023-02-17T05:16:03.992Z,53.02
2023-02-17T05:18:31.645Z,53.11
2023-02-17T05:21:00.500Z,53.29
2023-02-17T05:23:27.993Z,53.41
2023-02-17T05:25:55.530Z,53.63
2023-02-17T05:28:23.098Z,53.67
2023-02-17T05:30:51.006Z,53.73
2023-02-17T05:33:18.649Z,54.14
2023-02-17T05:35:46.152Z,54.12
2023-02-17T05:38:14.987Z,54.42
2023-02-17T05:40:42.464Z,54.40
2023-02-17T05:43:09.940Z,54.43
2023-02-17T05:45:37.462Z,54.51
2023-02-17T05:48:05.385Z,54.70
2023-02-17T05:50:32.925Z,54.75
2023-02-17T05:53:00.414Z,54.72
2023-02-17T05:55:29.327Z,54.92
2023-02-17T05:57:56.831Z,54.93
2023-02-17T06:00:24.717Z,55.01
2023-02-17T06:02:52.296Z,55.14
2023-02-17T06:05:19.921Z,55.33
2023-02-17T06:07:47.428Z,55.28
2023-02-17T06:10:15.347Z,55.36
2023-02-17T06:12:44.157Z,55.65
2023-02-17T06:15:11.870Z,55.57
2023-02-17T06:17:39.392Z,55.89
2023-02-17T06:20:10.026Z,55.97
2023-02-17T06:22:37.656Z,56.04
2023-02-17T06:25:05.941Z,56.26
2023-02-17T06:27:33.495Z,56.35
2023-02-17T06:30:02.433Z,56.32
2023-02-17T06:32:29.955Z,56.44
2023-02-17T06:34:59.309Z,56.67
2023-02-17T06:37:27.150Z,56.79
2023-02-17T06:39:54.858Z,57.06
2023-02-17T06:42:22.565Z,57.04
2023-02-17T06:44:50.388Z,57.38
2023-02-17T06:47:29.890Z,57.90
2023-02-17T06:49:57.611Z,57.78
2023-02-17T06:52:26.641Z,57.87
2023-02-17T06:54:54.252Z,57.65
2023-02-17T06:57:21.833Z,57.71
2023-02-17T06:59:49.479Z,57.87
2023-02-17T07:02:17.272Z,57.73
2023-02-17T07:04:46.207Z,57.61
2023-02-17T07:07:13.832Z,57.54
2023-02-17T07:09:42.044Z,57.79
2023-02-17T07:12:09.866Z,57.63
2023-02-17T07:14:37.796Z,57.95
2023-02-17T07:17:05.992Z,57.73
2023-02-17T07:19:33.782Z,57.80
2023-02-17T07:22:03.937Z,58.36
2023-02-17T07:24:31.795Z,58.29
2023-02-17T07:27:00.878Z,58.36
2023-02-17T07:29:28.532Z,58.45
2023-02-17T07:31:58.171Z,58.55
2023-02-17T07:34:25.733Z,58.39
2023-02-17T07:36:53.322Z,58.31
2023-02-17T07:39:22.426Z,58.37
2023-02-17T07:41:50.023Z,58.43
2023-02-17T07:44:17.562Z,58.23
2023-02-17T07:46:45.100Z,57.87
2023-02-17T07:49:13.488Z,57.96
2023-02-17T07:51:41.222Z,58.06
2023-02-17T07:54:08.935Z,58.39
2023-02-17T07:56:37.839Z,57.55
2023-02-17T07:59:08.806Z,57.80
2023-02-17T08:01:36.403Z,57.79
2023-02-17T08:04:04.800Z,57.66
2023-02-17T08:06:32.696Z,57.83
2023-02-17T08:09:20.847Z,57.75
2023-02-17T08:12:07.280Z,57.59
2023-02-17T08:14:38.303Z,57.68
2023-02-17T08:17:06.501Z,57.68
2023-02-17T08:19:47.638Z,57.43
2023-02-17T08:22:17.480Z,57.60
2023-02-17T08:24:45.709Z,57.62
2023-02-17T08:27:15.603Z,57.39
2023-02-17T08:29:43.874Z,57.26
2023-02-17T08:32:12.537Z,57.31
2023-02-17T08:34:40.140Z,56.87
2023-02-17T08:37:08.875Z,57.00
2023-02-17T08:39:37.412Z,57.23
2023-02-17T08:42:05.918Z,56.92
2023-02-17T08:44:37.434Z,57.23
2023-02-17T08:47:06.007Z,57.35
2023-02-17T08:49:33.780Z,57.15
2023-02-17T08:52:35.459Z,57.07
2023-02-17T08:55:04.886Z,57.14
2023-02-17T08:57:32.633Z,57.26
2023-02-17T09:00:01.685Z,57.29
2023-02-17T09:02:29.758Z,57.29
2023-02-17T09:04:57.385Z,57.37
2023-02-17T09:07:25.535Z,57.31
2023-02-17T09:09:54.203Z,57.49
2023-02-17T09:12:29.169Z,57.84
2023-02-17T09:14:57.125Z,57.94
2023-02-17T09:17:26.318Z,57.95
2023-02-17T09:19:54.901Z,57.89
2023-02-17T09:22:31.577Z,58.21
2023-02-17T09:25:00.128Z,58.38
2023-02-17T09:27:27.977Z,58.23
2023-02-17T09:29:55.919Z,58.35
2023-02-17T09:32:23.795Z,58.25
2023-02-17T09:34:53.036Z,58.63
2023-02-17T09:37:21.290Z,58.35
2023-02-17T09:39:49.772Z,58.49
2023-02-17T09:42:21.217Z,58.61
2023-02-17T09:44:52.185Z,58.54
2023-02-17T09:47:24.216Z,58.61
2023-02-17T09:49:57.558Z,58.76
2023-02-17T09:52:29.527Z,58.63
2023-02-17T09:55:05.080Z,58.98
2023-02-17T09:57:38.299Z,59.06
2023-02-17T10:00:11.478Z,59.23
2023-02-17T10:02:45.423Z,59.24
2023-02-17T10:05:18.057Z,59.30
2023-02-17T10:07:48.243Z,59.49
2023-02-17T10:10:20.071Z,59.22
2023-02-17T10:12:54.734Z,59.60
2023-02-17T10:15:26.554Z,59.69
2023-02-17T10:18:00.757Z,60.06
2023-02-17T10:20:34.843Z,60.30
2023-02-17T10:23:08.296Z,60.58
2023-02-17T10:25:50.499Z,60.65
2023-02-17T10:28:26.979Z,60.78
2023-02-17T10:31:03.194Z,60.95
2023-02-17T10:33:37.356Z,61.52
2023-02-17T10:36:13.519Z,61.73
2023-02-17T10:38:55.990Z,61.76
2023-02-17T10:41:28.190Z,61.65
2023-02-17T10:43:56.235Z,61.62
2023-02-17T10:46:30.382Z,62.21
2023-02-17T10:49:00.530Z,61.74
2023-02-17T10:51:31.621Z,61.15
2023-02-17T10:54:04.203Z,60.66
2023-02-17T10:56:39.543Z,60.44
2023-02-17T10:59:13.219Z,59.99
2023-02-17T11:01:42.343Z,60.17
2023-02-17T11:04:14.177Z,59.92
2023-02-17T11:06:49.994Z,60.13
2023-02-17T11:09:21.279Z,60.16
2023-02-17T11:11:59.154Z,60.16
2023-02-17T11:14:30.084Z,60.07
2023-02-17T11:17:00.866Z,60.22
2023-02-17T11:19:30.753Z,60.22
2023-02-17T11:22:01.778Z,60.16
2023-02-17T11:24:31.132Z,60.37
2023-02-17T11:27:01.517Z,60.47
2023-02-17T11:29:30.252Z,60.35
2023-02-17T11:32:00.423Z,60.05
2023-02-17T11:34:30.347Z,59.86
2023-02-17T11:37:01.192Z,59.92
2023-02-17T11:39:29.281Z,60.06
2023-02-17T11:41:57.680Z,60.26
2023-02-17T11:44:27.520Z,60.17
2023-02-17T11:47:14.274Z,59.97
2023-02-17T11:50:20.690Z,59.99
2023-02-17T11:53:09.189Z,59.98
2023-02-17T11:55:42.984Z,59.76
2023-02-17T11:58:31.444Z,60.36
2023-02-17T12:01:13.182Z,60.60
2023-02-17T12:03:55.740Z,60.88
2023-02-17T12:06:37.963Z,60.97
2023-02-17T12:09:16.719Z,60.98
2023-02-17T12:11:52.920Z,61.32
2023-02-17T12:14:38.918Z,61.40
2023-02-17T12:17:38.450Z,61.59
2023-02-17T12:20:32.937Z,61.57
2023-02-17T12:23:11.332Z,61.92
2023-02-17T12:25:46.507Z,62.03
2023-02-17T12:28:37.222Z,62.14
2023-02-17T12:31:17.010Z,62.07
2023-02-17T12:33:57.379Z,62.51
2023-02-17T12:36:30.403Z,62.23
2023-02-17T12:39:01.713Z,62.31
2023-02-17T12:41:36.282Z,62.82
2023-02-17T12:44:14.520Z,62.79
2023-02-17T12:46:45.595Z,62.57
2023-02-17T12:49:18.494Z,62.79
2023-02-17T12:51:51.085Z,63.02
2023-02-17T12:54:24.582Z,62.65
2023-02-17T12:57:12.158Z,63.10
2023-02-17T12:59:41.811Z,62.76
2023-02-17T13:02:13.061Z,62.94
2023-02-17T13:04:42.853Z,62.66
2023-02-17T13:07:41.642Z,62.82
2023-02-17T13:10:20.504Z,63.06
2023-02-17T13:13:00.023Z,63.20
2023-02-17T13:15:32.162Z,63.50
2023-02-17T13:18:03.017Z,63.19
2023-02-17T13:20:52.954Z,63.57
2023-02-17T13:23:38.832Z,63.46
2023-02-17T13:26:29.233Z,63.46
2023-02-17T13:29:13.268Z,63.52
2023-02-17T13:31:50.253Z,63.65
2023-02-17T13:34:30.834Z,63.73
2023-02-17T13:37:01.688Z,63.52
2023-02-17T13:39:36.902Z,63.86
2023-02-17T13:42:07.372Z,63.69
2023-02-17T13:44:41.714Z,63.82
2023-02-17T13:47:17.618Z,63.92
2023-02-17T13:49:53.682Z,63.88
2023-02-17T14:00:30.907Z,64.01
2023-02-17T14:03:00.962Z,64.28
2023-02-17T14:05:37.569Z,64.22
2023-02-17T14:08:08.628Z,64.35
2023-02-17T14:10:37.310Z,63.92
2023-02-17T14:13:05.144Z,63.83
2023-02-17T14:15:34.071Z,63.92
2023-02-17T14:18:01.678Z,63.84
2023-02-17T14:20:32.749Z,63.95
2023-02-17T14:23:04.461Z,63.88
2023-02-17T14:25:34.282Z,63.89
2023-02-17T14:28:01.864Z,63.83
2023-02-17T14:30:31.995Z,64.12
2023-02-17T14:33:06.826Z,64.18
2023-02-17T14:35:35.551Z,63.99
2023-02-17T14:38:19.427Z,64.27
2023-02-17T14:40:46.950Z,64.17
2023-02-17T14:43:14.481Z,64.03
2023-02-17T14:45:42.152Z,64.11
2023-02-17T14:48:11.452Z,64.14
2023-02-17T14:50:42.389Z,63.90
2023-02-17T14:53:14.274Z,64.25
2023-02-17T14:55:46.948Z,64.06
2023-02-17T14:58:19.552Z,64.47
2023-02-17T15:00:47.155Z,64.15
2023-02-17T15:03:16.403Z,64.39
2023-02-17T15:05:44.817Z,64.43
2023-02-17T15:08:15.644Z,64.54
2023-02-17T15:10:44.111Z,64.59
2023-02-17T15:13:15.134Z,64.63
2023-02-17T15:15:44.935Z,64.43
2023-02-17T15:18:13.188Z,64.67
2023-02-17T15:20:45.459Z,64.76
2023-02-17T15:23:14.520Z,64.69
2023-02-17T15:25:42.958Z,64.58
2023-02-17T15:28:13.747Z,64.74
2023-02-17T15:30:41.514Z,64.70
2023-02-17T15:33:12.284Z,64.85
2023-02-17T15:35:43.116Z,64.80
2023-02-17T15:38:12.858Z,65.00
2023-02-17T15:40:41.645Z,64.91
2023-02-17T15:43:15.701Z,65.14
2023-02-17T15:45:43.461Z,65.17
2023-02-17T15:48:19.973Z,65.26
2023-02-17T15:50:48.900Z,65.26
2023-02-17T15:53:16.434Z,65.27
2023-02-17T15:55:44.065Z,65.16
2023-02-17T15:58:16.565Z,65.29
2023-02-17T16:00:46.450Z,65.22
2023-02-17T16:03:14.619Z,65.24
2023-02-17T16:05:42.707Z,65.32
2023-02-17T16:08:11.689Z,65.22
2023-02-17T16:10:42.287Z,65.38
2023-02-17T16:13:13.607Z,65.40
2023-02-17T16:15:41.161Z,65.40
2023-02-17T16:18:17.401Z,65.70
2023-02-17T16:20:45.009Z,65.50
2023-02-17T16:23:13.933Z,65.49
2023-02-17T16:25:45.138Z,65.62
2023-02-17T16:28:16.671Z,65.77
2023-02-17T16:30:46.159Z,65.58
2023-02-17T16:33:14.685Z,65.82
2023-02-17T16:35:43.519Z,65.77
2023-02-17T16:38:17.188Z,66.05
2023-02-17T16:40:48.186Z,65.97
2023-02-17T16:43:17.176Z,66.02
2023-02-17T16:45:53.013Z,66.43
2023-02-17T16:48:21.345Z,66.16
2023-02-17T16:50:49.313Z,66.31
2023-02-17T16:53:18.510Z,66.34
2023-02-17T16:55:46.799Z,66.22
2023-02-17T16:58:16.792Z,66.49
2023-02-17T17:00:47.170Z,66.33
2023-02-17T17:03:15.594Z,66.33
2023-02-17T17:05:43.816Z,66.40
2023-02-17T17:08:14.308Z,66.62
2023-02-17T17:10:44.754Z,66.67
2023-02-17T17:13:13.132Z,66.66
2023-02-17T17:15:43.893Z,66.61
2023-02-17T17:18:19.140Z,66.77
2023-02-17T17:20:46.859Z,66.56
2023-02-17T17:23:15.693Z,66.64
2023-02-17T17:25:46.769Z,66.75
2023-02-17T17:28:16.361Z,66.70
2023-02-17T17:30:44.718Z,66.61
2023-02-17T17:33:12.462Z,66.68
2023-02-17T17:35:40.109Z,66.73
2023-02-17T17:38:08.062Z,66.77
2023-02-17T17:40:48.485Z,66.61
2023-02-17T17:43:20.111Z,66.68
2023-02-17T17:45:48.542Z,66.66
2023-02-17T17:48:17.685Z,66.33
2023-02-17T17:50:46.492Z,66.71
2023-02-17T17:53:14.378Z,66.83
2023-02-17T17:55:42.015Z,66.73
2023-02-17T17:58:09.583Z,66.74
2023-02-17T18:00:38.493Z,66.57
2023-02-17T18:03:06.150Z,66.62
2023-02-17T18:05:33.713Z,66.93
2023-02-17T18:08:01.723Z,66.80
2023-02-17T18:10:29.497Z,66.80
2023-02-17T18:12:57.407Z,66.76
2023-02-17T18:15:25.517Z,66.76
2023-02-17T18:17:54.432Z,66.74
2023-02-17T18:20:22.115Z,66.71
2023-02-17T18:22:49.798Z,66.83
2023-02-17T18:25:18.182Z,66.48
2023-02-17T18:27:47.423Z,66.67
2023-02-17T18:30:17.564Z,66.92
2023-02-17T18:32:45.750Z,66.88
2023-02-17T18:35:15.612Z,66.87
2023-02-17T18:37:44.014Z,67.01
2023-02-17T18:40:14.405Z,66.83
2023-02-17T18:42:44.568Z,66.94
2023-02-17T18:45:12.721Z,66.92
2023-02-17T18:47:40.368Z,66.84
2023-02-17T18:50:09.404Z,66.71
2023-02-17T18:52:39.201Z,66.88
2023-02-17T18:55:20.926Z,66.76
2023-02-17T18:57:56.719Z,66.90
2023-02-17T19:00:29.437Z,66.75
2023-02-17T19:03:23.957Z,66.85
2023-02-17T19:05:58.330Z,66.78
2023-02-17T19:08:31.387Z,66.83
2023-02-17T19:10:59.282Z,66.58
2023-02-17T19:13:31.459Z,66.39
2023-02-17T19:16:09.815Z,66.50
2023-02-17T19:18:43.268Z,66.49
2023-02-17T19:21:15.894Z,66.51
2023-02-17T19:23:45.187Z,66.62
2023-02-17T19:26:14.649Z,66.43
2023-02-17T19:28:42.731Z,66.95
2023-02-17T19:31:13.207Z,66.96
2023-02-17T19:33:41.325Z,66.99
2023-02-17T19:36:11.977Z,67.28
2023-02-17T19:38:51.454Z,67.50
2023-02-17T19:41:27.461Z,67.87
2023-02-17T19:43:55.756Z,67.77
2023-02-17T19:46:26.184Z,67.93
2023-02-17T19:48:53.948Z,68.12
2023-02-17T19:51:24.123Z,68.17
2023-02-17T19:53:51.918Z,68.37
2023-02-17T19:56:25.722Z,68.71
2023-02-17T19:58:56.469Z,69.14
2023-02-17T20:01:27.357Z,69.29
2023-02-17T20:04:05.539Z,69.76
2023-02-17T20:06:36.015Z,70.26
2023-02-17T20:09:12.094Z,70.93
2023-02-17T20:11:45.671Z,71.78
2023-02-17T20:14:16.515Z,71.79
2023-02-17T20:16:53.703Z,72.06
2023-02-17T20:19:21.561Z,72.03
2023-02-17T20:21:51.789Z,72.17
2023-02-17T20:24:19.452Z,72.50
2023-02-17T20:26:50.928Z,73.07
2023-02-17T20:29:18.678Z,73.04
2023-02-17T20:31:46.301Z,72.75
2023-02-17T20:34:26.895Z,73.03
2023-02-17T20:36:54.885Z,72.44
2023-02-17T20:39:22.670Z,72.22
2023-02-17T20:41:51.571Z,72.34
2023-02-17T20:44:19.273Z,71.78
2023-02-17T20:46:48.169Z,71.56
2023-02-17T20:49:16.268Z,71.54
2023-02-17T20:51:44.041Z,71.24
2023-02-17T20:54:11.643Z,71.24
2023-02-17T20:56:41.037Z,71.28
2023-02-17T20:59:12.921Z,71.13
2023-02-17T21:01:40.794Z,71.15
2023-02-17T21:04:08.537Z,71.32
2023-02-17T21:06:39.646Z,71.48
2023-02-17T21:09:09.521Z,71.47
2023-02-17T21:11:37.168Z,71.24
2023-02-17T21:14:05.061Z,71.45
2023-02-17T21:16:34.117Z,71.57
2023-02-17T21:19:02.636Z,71.61
2023-02-17T21:21:31.073Z,71.56
2023-02-17T21:23:59.578Z,71.37
2023-02-17T21:26:27.616Z,71.61
2023-02-17T21:28:55.441Z,71.75
2023-02-17T21:31:23.111Z,71.82
2023-02-17T21:33:52.204Z,71.88
2023-02-17T21:36:20.072Z,71.77
2023-02-17T21:38:48.690Z,71.87
2023-02-17T21:41:18.727Z,72.47
2023-02-17T21:44:04.053Z,72.43
2023-02-17T21:46:31.668Z,72.43
2023-02-17T21:49:02.151Z,72.35
2023-02-17T21:51:29.868Z,72.11
2023-02-17T21:53:57.858Z,72.01
2023-02-17T21:56:25.938Z,72.06
2023-02-17T21:58:55.410Z,72.07
2023-02-17T22:01:24.851Z,72.15
2023-02-17T22:03:52.813Z,72.03
2023-02-17T22:06:24.342Z,72.08
2023-02-17T22:08:52.094Z,71.98
2023-02-17T22:11:23.026Z,71.78
2023-02-17T22:13:51.023Z,71.90
2023-02-17T22:16:18.722Z,71.52
2023-02-17T22:18:46.564Z,71.61
2023-02-17T22:21:15.789Z,71.57
2023-02-17T22:23:45.259Z,71.30
2023-02-17T22:26:15.455Z,71.71
2023-02-17T22:28:43.595Z,71.60
2023-02-17T22:31:13.535Z,71.55
2023-02-17T22:33:41.225Z,71.62
2023-02-17T22:36:11.293Z,71.83
2023-02-17T22:38:38.956Z,71.67
2023-02-17T22:41:09.496Z,71.55
2023-02-17T22:43:38.027Z,71.62
2023-02-17T22:46:07.291Z,71.71
2023-02-17T22:48:37.263Z,71.76
2023-02-17T22:51:06.627Z,71.72
2023-02-17T22:53:35.240Z,71.53
2023-02-17T22:56:03.237Z,71.44
2023-02-17T22:58:32.817Z,71.35
2023-02-17T23:01:05.180Z,71.58
2023-02-17T23:03:33.176Z,71.62
2023-02-17T23:06:01.798Z,71.40
2023-02-17T23:08:29.677Z,71.35
2023-02-17T23:10:57.537Z,71.20
2023-02-17T23:13:25.158Z,71.23
2023-02-17T23:15:54.116Z,71.44
2023-02-17T23:18:21.971Z,70.96
2023-02-17T23:20:51.657Z,70.87
2023-02-17T23:23:19.996Z,70.87
2023-02-17T23:25:50.723Z,70.94
2023-02-17T23:28:19.500Z,70.69
2023-02-17T23:30:47.962Z,70.58
2023-02-17T23:33:18.018Z,70.56
2023-02-17T23:35:47.566Z,70.37
2023-02-17T23:38:16.320Z,70.44
2023-02-17T23:40:44.816Z,70.10
2023-02-17T23:43:12.481Z,70.14
2023-02-17T23:45:41.274Z,70.16
2023-02-17T23:48:09.078Z,70.07
2023-02-17T23:50:38.063Z,70.20
2023-02-17T23:53:06.396Z,70.11
2023-02-17T23:55:34.276Z,69.90
2023-02-17T23:58:02.160Z,69.71
